Time;durP1;ratioP1;P1;durP2;ratioP2;P2;SDS_P1;SDS_P2;PMS_P1;PMS_P2;Temp;Humidity;BMP_temperature;BMP_pressure;BME280_temperature;BME280_humidity;BME280_pressure;Samples;Min_cycle;Max_cycle;Signal;HPM_P1;HPM_P2
2023/07/06 00:00:55;;;;;;;;;;;;;;;24.52;56.01;100171.72;5431070;32;34273;-69
2023/07/06 00:03:57;;;;;;;;;;;;;;;23.76;57.81;100171.25;5423238;32;36040;-72
2023/07/06 00:06:59;;;;;;;;;;;;;;;23.72;57.91;100177.94;5429147;32;34903;-73
2023/07/06 00:10:00;;;;;;;;;;;;;;;24.29;56.10;100174.03;5422842;32;34857;-73
2023/07/06 00:13:02;;;;;;;;;;;;;;;23.96;56.89;100183.59;5437048;32;34212;-73
2023/07/06 00:16:05;;;;;;;;;;;;;;;24.33;55.55;100185.28;5428084;32;34815;-70
2023/07/06 00:19:08;;;;;;;;;;;;;;;24.25;55.60;100186.06;5425525;32;35463;-70
2023/07/06 00:22:10;;;;;;;;;;;;;;;23.85;56.84;100191.00;5428296;32;35068;-73
2023/07/06 00:25:12;;;;;;;;;;;;;;;24.02;56.30;100177.62;5427033;32;34174;-70
2023/07/06 00:28:14;;;;;;;;;;;;;;;23.83;56.77;100176.88;5429399;32;34549;-74
2023/07/06 00:31:21;;;;;;;;;;;;;;;23.98;56.45;100176.22;5426605;32;34378;-74
2023/07/06 00:34:23;;;;;;;;;;;;;;;24.30;55.26;100170.34;5410862;32;34878;-70
2023/07/06 00:37:26;;;;;;;;;;;;;;;23.84;56.88;100171.38;5425349;32;34910;-70
2023/07/06 00:40:31;;;;;;;;;;;;;;;23.63;57.26;100176.97;5425022;32;34499;-70
2023/07/06 00:43:46;;;;;;;;;;;;;;;23.89;57.02;100179.78;5427757;32;34321;-70
2023/07/06 00:46:48;;;;;;;;;;;;;;;23.63;57.41;100178.81;5423680;32;35415;-72
2023/07/06 00:49:50;;;;;;;;;;;;;;;23.83;57.01;100176.88;5427821;32;34719;-73
2023/07/06 00:52:58;;;;;;;;;;;;;;;24.10;56.21;100174.19;5427753;32;35108;-70
2023/07/06 00:56:00;;;;;;;;;;;;;;;24.53;54.69;100169.88;5425209;32;35282;-69
2023/07/06 00:59:05;;;;;;;;;;;;;;;24.24;55.26;100173.63;5429735;32;36955;-71
2023/07/06 01:02:11;;;;;;;;;;;;;;;24.48;54.70;100175.75;5424761;32;35245;-70
2023/07/06 01:05:14;;;;;;;;;;;;;;;24.58;54.38;100170.28;5428260;32;35332;-69
2023/07/06 01:08:18;;;;;;;;;;;;;;;24.22;55.31;100172.97;5425853;32;35186;-70
2023/07/06 01:11:20;;;;;;;;;;;;;;;24.08;55.93;100172.63;5427465;32;34246;-73
2023/07/06 01:14:23;;;;;;;;;;;;;;;23.89;56.32;100171.75;5415279;32;34639;-69
2023/07/06 01:17:26;;;;;;;;;;;;;;;23.77;56.24;100171.12;5427131;32;35396;-69
2023/07/06 01:20:40;;;;;;;;;;;;;;;24.36;54.37;100166.25;5428093;32;34862;-73
2023/07/06 01:24:01;;;;;;;;;;;;;;;23.86;56.17;100168.53;5423958;32;34916;-72
2023/07/06 01:27:24;;;;;;;;;;;;;;;23.99;55.06;100174.38;5425047;32;35016;-69
2023/07/06 01:30:26;;;;;;;;;;;;;;;23.96;55.01;100163.97;5416315;32;34599;-75
2023/07/06 01:33:41;;;;;;;;;;;;;;;24.06;54.74;100170.09;5425520;32;34143;-69
2023/07/06 01:36:46;;;;;;;;;;;;;;;23.39;56.75;100169.44;5426242;32;34201;-70
2023/07/06 01:39:48;;;;;;;;;;;;;;;23.60;56.14;100155.78;5424904;32;35920;-69
2023/07/06 01:42:50;;;;;;;;;;;;;;;24.24;54.15;100157.53;5424659;32;35384;-73
2023/07/06 01:45:53;;;;;;;;;;;;;;;24.19;53.58;100159.81;5425241;32;35292;-73
2023/07/06 01:48:57;;;;;;;;;;;;;;;23.60;55.30;100153.13;5423809;32;34645;-74
2023/07/06 01:52:05;;;;;;;;;;;;;;;23.60;55.61;100153.13;5427753;32;34681;-69
2023/07/06 01:55:16;;;;;;;;;;;;;;;23.91;54.41;100152.84;5424586;32;35438;-70
2023/07/06 01:58:18;;;;;;;;;;;;;;;23.36;56.04;100147.44;5411527;32;37210;-73
2023/07/06 02:01:24;;;;;;;;;;;;;;;23.43;55.92;100148.53;5422691;32;34136;-73
2023/07/06 02:04:31;;;;;;;;;;;;;;;23.32;56.08;100143.38;5422633;32;34765;-73
2023/07/06 02:07:33;;;;;;;;;;;;;;;22.96;57.31;100149.41;5429183;32;34773;-69
2023/07/06 02:10:35;;;;;;;;;;;;;;;23.54;55.07;100152.87;5425421;32;35110;-74
2023/07/06 02:13:37;;;;;;;;;;;;;;;23.39;55.19;100150.69;5426326;32;35201;-75
2023/07/06 02:16:39;;;;;;;;;;;;;;;22.94;56.14;100154.09;5423003;32;35968;-69
2023/07/06 02:19:44;;;;;;;;;;;;;;;22.78;56.35;100150.25;5427531;32;34738;-69
2023/07/06 02:22:46;;;;;;;;;;;;;;;22.77;56.48;100157.47;5425143;32;33975;-71
2023/07/06 02:25:48;;;;;;;;;;;;;;;23.03;55.81;100156.88;5410176;32;35442;-69
2023/07/06 02:28:52;;;;;;;;;;;;;;;23.03;55.79;100167.59;5428999;32;34301;-69
2023/07/06 02:31:54;;;;;;;;;;;;;;;23.12;55.28;100172.94;5423908;32;34944;-73
2023/07/06 02:34:56;;;;;;;;;;;;;;;23.27;55.02;100181.34;5427493;32;34518;-70
2023/07/06 02:37:58;;;;;;;;;;;;;;;23.39;54.37;100182.03;5420956;32;35407;-70
2023/07/06 02:41:04;;;;;;;;;;;;;;;22.80;56.51;100191.16;5429066;32;34734;-69
2023/07/06 02:44:06;;;;;;;;;;;;;;;22.28;58.08;100198.62;5425316;32;35534;-73
2023/07/06 02:47:08;;;;;;;;;;;;;;;22.28;58.15;100198.62;5423084;32;34770;-73
2023/07/06 02:50:14;;;;;;;;;;;;;;;22.78;56.94;100201.16;5422473;32;34885;-73
2023/07/06 02:53:16;;;;;;;;;;;;;;;22.42;58.06;100198.25;5424914;32;34020;-74
2023/07/06 02:56:19;;;;;;;;;;;;;;;22.82;57.03;100192.72;5426340;32;35620;-70
2023/07/06 02:59:21;;;;;;;;;;;;;;;22.75;57.38;100191.59;5425249;32;34309;-75
2023/07/06 03:02:23;;;;;;;;;;;;;;;22.37;58.98;100187.94;5425160;32;34909;-74
2023/07/06 03:05:25;;;;;;;;;;;;;;;22.14;59.34;100192.69;5428447;32;34990;-71
2023/07/06 03:08:27;;;;;;;;;;;;;;;22.25;59.06;100202.44;5424413;32;34537;-74
2023/07/06 03:11:30;;;;;;;;;;;;;;;22.05;59.88;100204.22;5426275;32;35442;-73
2023/07/06 03:14:32;;;;;;;;;;;;;;;22.46;59.00;100199.63;5424356;32;34706;-75
2023/07/06 03:17:35;;;;;;;;;;;;;;;21.86;60.82;100202.34;5428537;32;35170;-74
2023/07/06 03:20:37;;;;;;;;;;;;;;;22.29;59.66;100193.16;5421947;32;34926;-73
2023/07/06 03:23:39;;;;;;;;;;;;;;;22.19;59.31;100204.84;5424296;32;34849;-70
2023/07/06 03:26:41;;;;;;;;;;;;;;;22.10;60.04;100206.53;5429974;32;35182;-74
2023/07/06 03:29:43;;;;;;;;;;;;;;;21.87;60.64;100211.22;5409984;32;34523;-74
2023/07/06 03:32:45;;;;;;;;;;;;;;;21.98;60.18;100210.25;5429143;32;34979;-72
2023/07/06 03:35:47;;;;;;;;;;;;;;;22.22;59.98;100216.13;5422281;32;35717;-75
2023/07/06 03:38:49;;;;;;;;;;;;;;;22.21;59.64;100213.56;5425933;32;34704;-74
2023/07/06 03:41:51;;;;;;;;;;;;;;;22.22;59.37;100224.16;5426361;32;35810;-69
2023/07/06 03:44:55;;;;;;;;;;;;;;;22.57;58.51;100218.25;5423994;32;34549;-72
2023/07/06 03:47:58;;;;;;;;;;;;;;;22.33;58.23;100224.00;5427084;32;35077;-70
2023/07/06 03:51:03;;;;;;;;;;;;;;;21.97;59.20;100217.44;5426435;32;35677;-74
2023/07/06 03:54:06;;;;;;;;;;;;;;;22.66;57.94;100225.41;5413776;32;34189;-71
2023/07/06 03:57:09;;;;;;;;;;;;;;;22.21;59.25;100229.63;5423444;32;35394;-73
2023/07/06 04:00:22;;;;;;;;;;;;;;;22.66;57.70;100241.50;5427928;32;34839;-73
2023/07/06 04:03:24;;;;;;;;;;;;;;;22.13;59.43;100239.19;5416663;32;35170;-69
2023/07/06 04:06:27;;;;;;;;;;;;;;;21.62;61.22;100245.47;5425064;32;34149;-72
2023/07/06 04:09:29;;;;;;;;;;;;;;;21.30;63.58;100255.44;5428627;32;34677;-73
2023/07/06 04:12:32;;;;;;;;;;;;;;;21.62;62.44;100245.47;5426505;32;34949;-75
2023/07/06 04:15:34;;;;;;;;;;;;;;;21.13;63.99;100262.22;5426830;32;34265;-70
2023/07/06 04:18:36;;;;;;;;;;;;;;;21.53;62.09;100265.00;5424579;32;34250;-74
2023/07/06 04:21:38;;;;;;;;;;;;;;;21.57;61.16;100271.75;5425054;32;34553;-75
2023/07/06 04:24:40;;;;;;;;;;;;;;;21.07;63.36;100268.91;5424929;32;35588;-71
2023/07/06 04:27:42;;;;;;;;;;;;;;;21.63;61.73;100267.69;5425454;32;35500;-71
2023/07/06 04:30:45;;;;;;;;;;;;;;;21.44;61.61;100289.84;5427410;32;34550;-71
2023/07/06 04:33:47;;;;;;;;;;;;;;;21.74;60.34;100285.50;5426591;32;35332;-69
2023/07/06 04:36:49;;;;;;;;;;;;;;;21.99;59.67;100274.34;5428722;32;34540;-75
2023/07/06 04:39:51;;;;;;;;;;;;;;;22.05;58.81;100267.59;5425578;32;35158;-69
2023/07/06 04:42:56;;;;;;;;;;;;;;;21.82;59.89;100266.94;5432413;32;35003;-73
2023/07/06 04:45:58;;;;;;;;;;;;;;;22.25;58.38;100265.84;5418671;32;35912;-69
2023/07/06 04:49:01;;;;;;;;;;;;;;;21.84;59.16;100270.34;5421356;32;34911;-68
2023/07/06 04:52:03;;;;;;;;;;;;;;;22.01;58.83;100268.84;5427502;32;34876;-74
2023/07/06 04:55:06;;;;;;;;;;;;;;;22.10;58.32;100271.59;5425032;32;34607;-72
2023/07/06 04:58:08;;;;;;;;;;;;;;;22.13;58.12;100275.81;5417285;32;35081;-70
2023/07/06 05:01:10;;;;;;;;;;;;;;;22.21;57.49;100275.13;5421462;32;35211;-74
2023/07/06 05:04:12;;;;;;;;;;;;;;;22.28;57.05;100282.47;5425905;32;35313;-73
2023/07/06 05:07:14;;;;;;;;;;;;;;;22.23;56.73;100281.22;5413014;32;34908;-72
2023/07/06 05:10:17;;;;;;;;;;;;;;;22.97;54.97;100270.84;5427930;32;35031;-71
2023/07/06 05:13:19;;;;;;;;;;;;;;;22.92;55.23;100273.09;5429247;32;35429;-74
2023/07/06 05:16:22;;;;;;;;;;;;;;;22.69;55.89;100267.19;5420519;32;35032;-73
2023/07/06 05:19:24;;;;;;;;;;;;;;;22.61;55.70;100277.75;5426249;32;35703;-74
2023/07/06 05:22:26;;;;;;;;;;;;;;;23.04;54.19;100288.06;5425327;32;35021;-69
2023/07/06 05:25:28;;;;;;;;;;;;;;;22.37;56.46;100283.50;5420015;32;34204;-73
2023/07/06 05:28:31;;;;;;;;;;;;;;;23.00;54.93;100288.50;5422816;32;34961;-71
2023/07/06 05:31:33;;;;;;;;;;;;;;;22.69;55.28;100294.81;5430740;32;35258;-68
2023/07/06 05:34:35;;;;;;;;;;;;;;;22.94;54.99;100297.94;5408646;32;35318;-72
2023/07/06 05:37:37;;;;;;;;;;;;;;;22.95;54.96;100305.00;5424260;32;35052;-70
2023/07/06 05:40:40;;;;;;;;;;;;;;;22.69;56.05;100315.37;5420727;32;34158;-73
2023/07/06 05:43:42;;;;;;;;;;;;;;;22.96;55.12;100312.03;5408928;32;34308;-68
2023/07/06 05:46:44;;;;;;;;;;;;;;;23.64;53.16;100312.00;5422947;32;34658;-68
2023/07/06 05:49:46;;;;;;;;;;;;;;;23.37;54.40;100318.91;5371996;32;34224;-70
2023/07/06 05:52:48;;;;;;;;;;;;;;;22.59;55.25;100310.00;5358151;32;34899;-72
2023/07/06 05:55:50;;;;;;;;;;;;;;;23.48;54.66;100308.03;5345777;32;34889;-68
2023/07/06 05:58:52;;;;;;;;;;;;;;;23.08;57.09;100307.41;5335721;32;34087;-73
2023/07/06 06:01:54;;;;;;;;;;;;;;;23.06;56.36;100302.19;5326170;32;35286;-69
2023/07/06 06:05:00;;;;;;;;;;;;;;;22.59;58.93;100307.31;5402036;32;34793;-72
2023/07/06 06:08:02;;;;;;;;;;;;;;;22.38;60.36;100322.66;5410598;32;34401;-67
2023/07/06 06:11:04;;;;;;;;;;;;;;;22.36;61.33;100327.31;5411307;32;34115;-69
2023/07/06 06:14:06;;;;;;;;;;;;;;;22.10;63.41;100329.63;5416199;32;35078;-66
2023/07/06 06:17:09;;;;;;;;;;;;;;;21.82;65.64;100339.16;5417512;32;34242;-76
2023/07/06 06:20:11;;;;;;;;;;;;;;;21.83;65.51;100355.13;5419208;32;34246;-81
2023/07/06 06:23:15;;;;;;;;;;;;;;;21.97;64.57;100358.41;5415030;32;35404;-81
2023/07/06 06:26:19;;;;;;;;;;;;;;;21.28;67.10;100362.50;5418977;32;35396;-76
2023/07/06 06:29:21;;;;;;;;;;;;;;;21.56;66.59;100362.81;5420309;32;37145;-86
2023/07/06 06:32:25;;;;;;;;;;;;;;;21.73;69.03;100358.72;5417825;32;34556;-73
2023/07/06 06:35:33;;;;;;;;;;;;;;;22.75;63.02;100359.53;5422134;32;37352;-67
2023/07/06 06:38:35;;;;;;;;;;;;;;;23.36;61.70;100362.81;5420094;32;34970;-68
2023/07/06 06:41:41;;;;;;;;;;;;;;;22.00;63.51;100383.06;5416454;32;34909;-73
2023/07/06 06:44:43;;;;;;;;;;;;;;;22.52;64.55;100367.78;5410125;32;35481;-73
2023/07/06 06:47:45;;;;;;;;;;;;;;;22.34;66.71;100364.91;5408829;32;35310;-74
2023/07/06 06:50:47;;;;;;;;;;;;;;;22.38;66.84;100370.84;5425015;32;35285;-74
2023/07/06 06:53:49;;;;;;;;;;;;;;;23.12;63.38;100370.44;5419488;32;34883;-72
2023/07/06 06:56:51;;;;;;;;;;;;;;;23.40;61.99;100358.03;5408730;32;35335;-69
2023/07/06 06:59:53;;;;;;;;;;;;;;;23.60;59.25;100358.84;5405986;32;34213;-73
2023/07/06 07:02:57;;;;;;;;;;;;;;;23.90;58.38;100358.66;5432849;32;35266;-74
2023/07/06 07:05:59;;;;;;;;;;;;;;;24.84;55.98;100355.78;5422062;32;34276;-75
2023/07/06 07:09:02;;;;;;;;;;;;;;;23.93;57.76;100362.87;5387876;32;1132376;-74
2023/07/06 07:12:05;;;;;;;;;;;;;;;24.38;56.03;100346.88;5416658;32;35378;-73
2023/07/06 07:15:07;;;;;;;;;;;;;;;23.60;61.25;100351.63;5418062;32;35389;-74
2023/07/06 07:18:09;;;;;;;;;;;;;;;23.92;60.34;100350.44;5415550;32;34263;-75
2023/07/06 07:21:12;;;;;;;;;;;;;;;24.45;57.59;100350.66;5420631;32;35163;-74
2023/07/06 07:24:15;;;;;;;;;;;;;;;23.50;60.91;100343.59;5422382;32;34169;-78
2023/07/06 07:27:17;;;;;;;;;;;;;;;24.16;58.27;100342.72;5404141;32;35116;-77
2023/07/06 07:30:20;;;;;;;;;;;;;;;26.39;51.87;100340.75;5420484;32;35599;-77
2023/07/06 07:33:22;;;;;;;;;;;;;;;27.25;48.73;100333.22;5418734;32;34824;-75
2023/07/06 07:36:24;;;;;;;;;;;;;;;28.05;45.74;100322.44;5411203;32;34776;-76
2023/07/06 07:39:26;;;;;;;;;;;;;;;29.31;42.96;100329.50;5420465;32;35616;-76
2023/07/06 07:42:30;;;;;;;;;;;;;;;28.08;44.96;100334.75;5406201;32;34074;-76
2023/07/06 07:45:33;;;;;;;;;;;;;;;27.63;46.16;100344.31;5395188;32;34258;-76
2023/07/06 07:48:38;;;;;;;;;;;;;;;27.34;46.23;100342.13;5394210;32;35352;-76
2023/07/06 07:51:41;;;;;;;;;;;;;;;25.62;50.88;100345.19;5408388;32;35311;-76
2023/07/06 07:54:43;;;;;;;;;;;;;;;25.60;51.52;100339.13;5417648;32;34542;-76
2023/07/06 07:57:45;;;;;;;;;;;;;;;26.21;50.63;100330.06;5421803;32;34261;-77
2023/07/06 08:00:52;;;;;;;;;;;;;;;26.36;50.25;100331.16;5414263;32;39215;-78
2023/07/06 08:03:54;;;;;;;;;;;;;;;26.17;51.08;100328.72;5419339;32;34105;-76
2023/07/06 08:06:57;;;;;;;;;;;;;;;25.26;53.99;100337.22;5418946;32;34215;-76
2023/07/06 08:09:59;;;;;;;;;;;;;;;25.67;52.42;100332.94;5417626;32;35024;-75
2023/07/06 08:13:01;;;;;;;;;;;;;;;25.71;52.79;100336.19;5415535;32;33995;-76
2023/07/06 08:16:03;;;;;;;;;;;;;;;25.23;54.06;100329.44;5418046;32;34290;-76
2023/07/06 08:19:08;;;;;;;;;;;;;;;26.41;50.28;100326.16;5429699;32;34665;-75
2023/07/06 08:22:32;;;;;;;;;;;;;;;25.44;52.44;100341.69;5423706;32;34490;-76
2023/07/06 08:25:38;;;;;;;;;;;;;;;26.27;50.24;100334.78;5412313;32;34366;-75
2023/07/06 08:28:40;;;;;;;;;;;;;;;27.17;48.02;100335.87;5422675;32;34305;-76
2023/07/06 08:31:43;;;;;;;;;;;;;;;26.62;48.34;100339.16;5420665;32;35083;-77
2023/07/06 08:34:47;;;;;;;;;;;;;;;27.21;46.42;100328.31;5407738;32;35351;-76
2023/07/06 08:37:49;;;;;;;;;;;;;;;28.25;43.91;100316.59;5413854;32;36016;-77
2023/07/06 08:40:52;;;;;;;;;;;;;;;28.64;43.40;100322.00;5423877;32;35343;-77
2023/07/06 08:43:56;;;;;;;;;;;;;;;29.30;41.58;100333.19;5416856;32;34590;-76
2023/07/06 08:46:58;;;;;;;;;;;;;;;31.05;37.22;100320.78;5420921;32;33582;-76
2023/07/06 08:50:03;;;;;;;;;;;;;;;30.84;36.66;100319.72;5422019;32;35083;-77
2023/07/06 08:53:09;;;;;;;;;;;;;;;31.24;34.51;100329.13;5424840;32;35402;-74
2023/07/06 08:56:12;;;;;;;;;;;;;;;33.37;31.41;100318.16;5430846;32;35274;-74
2023/07/06 08:59:16;;;;;;;;;;;;;;;33.23;31.26;100319.19;5417028;32;34757;-72
2023/07/06 09:02:19;;;;;;;;;;;;;;;33.64;31.16;100321.72;5438413;32;35389;-68
2023/07/06 09:05:25;;;;;;;;;;;;;;;33.09;31.82;100312.91;5423062;32;34871;-83
2023/07/06 09:08:27;;;;;;;;;;;;;;;31.90;33.99;100319.81;5418970;32;33784;-71
2023/07/06 09:11:31;;;;;;;;;;;;;;;32.59;32.39;100306.13;5426219;32;34362;-70
2023/07/06 09:14:33;;;;;;;;;;;;;;;29.98;37.23;100309.69;5423902;32;34939;-76
2023/07/06 09:17:44;;;;;;;;;;;;;;;29.26;39.35;100311.09;5432844;32;34256;-74
2023/07/06 09:20:49;;;;;;;;;;;;;;;32.77;33.32;100292.72;5425100;32;35367;-72
2023/07/06 09:23:51;;;;;;;;;;;;;;;31.13;36.15;100297.06;5423047;32;35338;-83
2023/07/06 09:26:57;;;;;;;;;;;;;;;31.41;35.39;100297.09;5416978;32;34526;-75
2023/07/06 09:30:03;;;;;;;;;;;;;;;32.18;34.28;100304.25;5423451;32;35384;-72
2023/07/06 09:33:06;;;;;;;;;;;;;;;30.87;37.61;100305.78;5421495;32;36963;-71
2023/07/06 09:36:10;;;;;;;;;;;;;;;30.03;39.24;100316.22;5417543;32;35542;-71
2023/07/06 09:39:14;;;;;;;;;;;;;;;31.18;37.08;100307.34;5416271;32;35904;-73
2023/07/06 09:42:17;;;;;;;;;;;;;;;31.40;36.11;100305.44;5424060;32;36580;-75
2023/07/06 09:45:22;;;;;;;;;;;;;;;30.23;37.78;100308.37;5418257;32;34114;-72
2023/07/06 09:48:27;;;;;;;;;;;;;;;29.61;39.40;100311.44;5421074;32;34371;-82
2023/07/06 09:51:31;;;;;;;;;;;;;;;31.59;35.55;100303.91;5420536;32;35103;-75
2023/07/06 09:54:35;;;;;;;;;;;;;;;34.17;30.91;100309.84;5419272;32;34540;-74
2023/07/06 09:57:40;;;;;;;;;;;;;;;33.18;32.52;100301.81;5425476;32;34929;-83
2023/07/06 10:00:44;;;;;;;;;;;;;;;32.73;33.80;100306.97;5408810;32;35538;-86
2023/07/06 10:03:52;;;;;;;;;;;;;;;31.59;35.23;100304.75;5420577;32;34809;-75
2023/07/06 10:06:57;;;;;;;;;;;;;;;33.87;31.63;100304.87;5436501;32;35709;-75
2023/07/06 10:10:13;;;;;;;;;;;;;;;34.15;31.02;100301.91;5424683;32;35602;-79
2023/07/06 10:13:33;;;;;;;;;;;;;;;36.52;27.58;100297.38;5418257;32;34364;-79
2023/07/06 10:16:35;;;;;;;;;;;;;;;33.99;30.16;100301.53;5422030;32;37381;-73
2023/07/06 10:19:59;;;;;;;;;;;;;;;35.19;27.67;100294.37;5415612;32;34318;-73
2023/07/06 10:23:14;;;;;;;;;;;;;;;34.00;29.33;100300.47;5425405;32;32863;-74
2023/07/06 10:26:19;;;;;;;;;;;;;;;33.33;29.30;100300.56;5405742;32;34230;-75
2023/07/06 10:29:29;;;;;;;;;;;;;;;33.71;29.28;100294.44;5429955;32;34125;-84
2023/07/06 10:32:37;;;;;;;;;;;;;;;31.79;32.57;100308.44;5429942;32;34261;-79
2023/07/06 10:35:43;;;;;;;;;;;;;;;30.63;33.99;100306.13;5436140;32;34709;-79
2023/07/06 10:38:46;;;;;;;;;;;;;;;31.42;32.46;100308.78;5456734;32;34788;-81
2023/07/06 10:41:54;;;;;;;;;;;;;;;31.36;33.36;100312.28;5448055;32;34478;-72
2023/07/06 10:44:57;;;;;;;;;;;;;;;30.29;36.35;100306.78;5429983;32;34465;-75
2023/07/06 10:48:18;;;;;;;;;;;;;;;30.36;35.83;100307.72;5440449;32;36276;-77
2023/07/06 10:51:23;;;;;;;;;;;;;;;29.82;38.24;100316.13;5439013;32;34408;-77
2023/07/06 10:54:28;;;;;;;;;;;;;;;29.57;38.83;100318.28;5454194;32;35030;-86
2023/07/06 10:57:34;;;;;;;;;;;;;;;31.30;35.90;100321.22;5422762;32;35722;-82
2023/07/06 11:00:38;;;;;;;;;;;;;;;32.23;34.63;100317.25;5437872;32;34705;-73
2023/07/06 11:03:41;;;;;;;;;;;;;;;30.51;36.83;100313.09;5451532;32;35886;-76
2023/07/06 11:06:51;;;;;;;;;;;;;;;32.15;34.21;100309.28;5449816;32;34847;-79
2023/07/06 11:10:16;;;;;;;;;;;;;;;33.04;33.13;100306.41;5441113;32;34218;-81
2023/07/06 11:13:19;;;;;;;;;;;;;;;31.61;34.50;100302.66;5437279;32;34137;-79
2023/07/06 11:16:26;;;;;;;;;;;;;;;34.50;29.43;100303.44;5438994;32;34171;-79
2023/07/06 11:19:36;;;;;;;;;;;;;;;35.80;27.00;100299.88;5447678;32;34303;-83
2023/07/06 11:22:39;;;;;;;;;;;;;;;34.78;28.34;100300.31;5451997;32;35326;-78
2023/07/06 11:25:41;;;;;;;;;;;;;;;32.52;29.74;100295.19;5444293;32;34696;-73
2023/07/06 11:28:43;;;;;;;;;;;;;;;32.98;29.87;100283.59;5453487;32;34442;-75
2023/07/06 11:31:48;;;;;;;;;;;;;;;35.20;26.43;100285.13;5454322;32;35559;-75
2023/07/06 11:34:50;;;;;;;;;;;;;;;35.01;26.63;100279.59;5460086;32;34817;-74
2023/07/06 11:38:28;;;;;;;;;;;;;;;34.40;27.78;100282.91;5449377;32;34206;-78
2023/07/06 11:41:42;;;;;;;;;;;;;;;33.25;28.80;100284.44;5367723;32;34862;-79
2023/07/06 11:44:48;;;;;;;;;;;;;;;34.28;27.11;100301.00;5444527;32;36046;-73
2023/07/06 11:47:53;;;;;;;;;;;;;;;34.91;26.69;100284.69;5455186;32;34057;-80
2023/07/06 11:50:55;;;;;;;;;;;;;;;36.72;24.90;100282.56;5456257;32;34197;-72
2023/07/06 11:53:59;;;;;;;;;;;;;;;35.99;24.91;100281.59;5436766;32;34343;-71
2023/07/06 11:57:24;;;;;;;;;;;;;;;35.44;25.42;100280.72;5431917;32;35808;-75
2023/07/06 12:03:29;;;;;;;;;;;;;;;36.49;22.28;100278.66;5453961;32;34240;-78
2023/07/06 12:06:32;;;;;;;;;;;;;;;36.77;23.12;100277.19;5441034;32;34158;-77
2023/07/06 12:09:36;;;;;;;;;;;;;;;35.75;24.66;100282.50;5459044;32;34927;-73
2023/07/06 12:12:38;;;;;;;;;;;;;;;35.22;25.32;100283.81;5459937;32;36084;-75
2023/07/06 12:15:43;;;;;;;;;;;;;;;34.65;26.46;100279.41;5455511;32;34011;-78
2023/07/06 12:18:46;;;;;;;;;;;;;;;33.09;28.62;100273.94;5459183;32;35888;-75
2023/07/06 12:21:50;;;;;;;;;;;;;;;31.90;30.62;100279.88;5432961;32;35252;-69
2023/07/06 12:24:52;;;;;;;;;;;;;;;32.30;30.68;100277.31;5438472;32;35435;-71
2023/07/06 12:27:58;;;;;;;;;;;;;;;32.39;30.93;100269.84;5461936;32;34220;-76
2023/07/06 12:31:03;;;;;;;;;;;;;;;32.12;31.06;100258.84;5457055;32;34997;-71
2023/07/06 12:34:05;;;;;;;;;;;;;;;31.82;30.99;100263.75;5455481;32;34094;-71
2023/07/06 12:37:08;;;;;;;;;;;;;;;32.54;30.06;100259.66;5448385;32;35830;-83
2023/07/06 12:40:18;;;;;;;;;;;;;;;31.82;28.46;100252.88;5427033;32;34766;-75
2023/07/06 12:43:24;;;;;;;;;;;;;;;31.40;29.23;100257.41;5447192;32;35329;-76
2023/07/06 12:46:30;;;;;;;;;;;;;;;31.04;31.11;100254.78;5440341;32;34192;-74
2023/07/06 12:49:34;;;;;;;;;;;;;;;30.42;32.65;100255.44;5441107;32;34181;-79
2023/07/06 12:52:36;;;;;;;;;;;;;;;30.45;32.28;100257.75;5439851;32;35722;-87
2023/07/06 12:55:41;;;;;;;;;;;;;;;31.13;31.10;100250.91;5432433;32;34280;-69
2023/07/06 12:58:47;;;;;;;;;;;;;;;30.86;30.64;100257.16;5431192;32;36177;-70
2023/07/06 13:01:49;;;;;;;;;;;;;;;31.34;29.49;100252.75;5436921;32;34162;-72
2023/07/06 13:04:52;;;;;;;;;;;;;;;31.91;29.28;100261.69;5458066;32;34570;-71
2023/07/06 13:07:54;;;;;;;;;;;;;;;30.98;28.45;100255.59;5450741;32;34298;-72
2023/07/06 13:10:59;;;;;;;;;;;;;;;30.58;29.58;100252.47;5454601;32;34963;-69
2023/07/06 13:14:04;;;;;;;;;;;;;;;30.51;29.88;100243.41;5435924;32;34444;-76
2023/07/06 13:17:12;;;;;;;;;;;;;;;31.52;29.08;100244.09;5435988;32;36081;-77
2023/07/06 13:20:15;;;;;;;;;;;;;;;30.83;28.61;100246.69;5443665;32;34220;-79
2023/07/06 13:23:19;;;;;;;;;;;;;;;30.54;28.95;100256.59;5452139;32;34756;-72
2023/07/06 13:26:26;;;;;;;;;;;;;;;31.09;27.97;100252.31;5457590;32;34302;-72
2023/07/06 13:29:34;;;;;;;;;;;;;;;30.40;28.33;100243.91;5447937;32;34623;-79
2023/07/06 13:32:36;;;;;;;;;;;;;;;30.34;28.01;100250.13;5433991;32;35166;-78
2023/07/06 13:35:39;;;;;;;;;;;;;;;30.13;28.38;100243.63;5438363;32;34185;-77
2023/07/06 13:38:41;;;;;;;;;;;;;;;31.18;27.45;100242.19;5456886;32;34920;-83
2023/07/06 13:41:43;;;;;;;;;;;;;;;31.27;27.02;100241.84;5439594;32;34454;-79
2023/07/06 13:44:45;;;;;;;;;;;;;;;31.66;25.90;100240.41;5460422;32;35180;-81
2023/07/06 13:47:47;;;;;;;;;;;;;;;31.38;27.19;100245.06;5461727;32;35223;-83
2023/07/06 13:50:51;;;;;;;;;;;;;;;31.49;27.84;100239.06;5455674;32;34936;-76
2023/07/06 13:53:54;;;;;;;;;;;;;;;31.60;28.20;100245.81;5463007;32;34555;-81
2023/07/06 13:56:57;;;;;;;;;;;;;;;30.71;29.40;100238.22;5461982;32;35468;-81
2023/07/06 14:00:00;;;;;;;;;;;;;;;31.30;28.74;100240.63;5431135;32;34995;-85
2023/07/06 14:03:03;;;;;;;;;;;;;;;31.02;28.53;100236.00;5447377;32;33564;-77
2023/07/06 14:06:05;;;;;;;;;;;;;;;30.65;29.48;100242.50;5456996;32;34170;-82
2023/07/06 14:09:07;;;;;;;;;;;;;;;30.85;29.78;100237.31;5460250;32;35494;-76
2023/07/06 14:12:10;;;;;;;;;;;;;;;30.71;30.10;100235.50;5458850;32;35209;-83
2023/07/06 14:15:14;;;;;;;;;;;;;;;30.13;31.17;100242.78;5444690;32;34490;-84
2023/07/06 14:18:18;;;;;;;;;;;;;;;31.55;29.41;100244.53;5449697;32;33578;-83
2023/07/06 14:21:22;;;;;;;;;;;;;;;30.71;30.19;100249.91;5447054;32;34411;-80
2023/07/06 14:24:25;;;;;;;;;;;;;;;30.52;30.51;100252.38;5448713;32;34256;-83
2023/07/06 14:27:29;;;;;;;;;;;;;;;30.29;30.55;100245.28;5449243;32;34668;-81
2023/07/06 14:30:32;;;;;;;;;;;;;;;30.65;29.65;100242.50;5465063;32;34391;-76
2023/07/06 14:33:34;;;;;;;;;;;;;;;30.79;29.52;100258.97;5450027;32;35032;-76
2023/07/06 14:36:36;;;;;;;;;;;;;;;30.63;29.55;100247.28;5438488;32;35057;-77
2023/07/06 14:39:39;;;;;;;;;;;;;;;30.08;30.38;100247.94;5443859;32;34654;-77
2023/07/06 14:42:41;;;;;;;;;;;;;;;30.47;29.06;100242.97;5466117;32;34804;-78
2023/07/06 14:45:44;;;;;;;;;;;;;;;30.04;29.22;100242.03;5452782;32;35206;-84
2023/07/06 14:48:47;;;;;;;;;;;;;;;30.20;34.16;100240.97;5450883;32;35414;-85
2023/07/06 14:51:49;;;;;;;;;;;;;;;30.09;35.63;100244.19;5453956;32;35023;-84
2023/07/06 14:54:51;;;;;;;;;;;;;;;29.86;37.36;100263.25;5473395;32;35726;-83
2023/07/06 14:57:54;;;;;;;;;;;;;;;30.19;37.47;100253.69;5469734;32;34244;-85
2023/07/06 15:00:56;;;;;;;;;;;;;;;29.02;40.54;100259.88;5462049;32;35713;-77
2023/07/06 15:03:58;;;;;;;;;;;;;;;29.47;39.61;100260.81;5466013;32;35296;-84
2023/07/06 15:07:00;;;;;;;;;;;;;;;29.25;40.82;100263.41;5466107;32;34825;-84
2023/07/06 15:10:02;;;;;;;;;;;;;;;29.45;41.03;100257.44;5438707;32;35316;-77
2023/07/06 15:13:05;;;;;;;;;;;;;;;29.37;41.53;100252.97;5454600;32;34899;-83
2023/07/06 15:16:08;;;;;;;;;;;;;;;29.83;38.57;100247.41;5437243;32;35053;-78
2023/07/06 15:19:10;;;;;;;;;;;;;;;29.80;37.67;100253.16;5467020;32;34594;-79
2023/07/06 15:22:12;;;;;;;;;;;;;;;30.02;37.33;100249.53;5452921;32;34260;-81
2023/07/06 15:25:14;;;;;;;;;;;;;;;29.43;38.37;100252.19;5450899;32;34192;-76
2023/07/06 15:28:16;;;;;;;;;;;;;;;29.65;38.09;100245.06;5467916;32;34595;-83
2023/07/06 15:31:23;;;;;;;;;;;;;;;28.92;39.72;100254.75;5444971;32;34355;-83
2023/07/06 15:34:25;;;;;;;;;;;;;;;29.57;38.48;100251.41;5466882;32;34378;-83
2023/07/06 15:37:28;;;;;;;;;;;;;;;29.31;39.15;100251.00;5463716;32;34953;-76
2023/07/06 15:40:30;;;;;;;;;;;;;;;29.25;38.29;100244.44;5463945;32;34411;-83
2023/07/06 15:43:33;;;;;;;;;;;;;;;29.03;39.06;100246.16;5445255;32;34824;-82
2023/07/06 15:46:35;;;;;;;;;;;;;;;28.93;39.63;100242.88;5463324;32;34781;-82